createdAt,value
2022-12-23T00:00:17.041Z,28.70
2022-12-23T00:02:45.724Z,26.67
2022-12-23T00:05:14.753Z,27.17
2022-12-23T00:07:42.774Z,29.50
2022-12-23T00:10:11.730Z,29.80
2022-12-23T00:12:57.029Z,24.87
2022-12-23T00:15:26.393Z,28.37
2022-12-23T00:17:54.366Z,26.20
2022-12-23T00:20:22.391Z,30.37
2022-12-23T00:23:05.777Z,27.27
2022-12-23T00:25:44.675Z,28.67
2022-12-23T00:28:14.256Z,30.63
2022-12-23T00:30:54.884Z,29.97
2022-12-23T00:33:24.889Z,30.70
2022-12-23T00:35:53.641Z,27.60
2022-12-23T00:38:43.285Z,32.27
2022-12-23T00:41:30.106Z,31.53
2022-12-23T00:43:58.505Z,29.60
2022-12-23T00:46:28.115Z,29.87
2022-12-23T00:49:13.424Z,25.07
2022-12-23T00:51:41.497Z,26.97
2022-12-23T00:54:09.581Z,28.00
2022-12-23T00:56:37.597Z,30.27
2022-12-23T00:59:05.931Z,27.87
2022-12-23T01:01:52.580Z,30.03
2022-12-23T01:04:38.507Z,29.73
2022-12-23T01:07:08.602Z,32.37
2022-12-23T01:09:37.103Z,32.13
2022-12-23T01:12:05.529Z,27.73
2022-12-23T01:14:33.769Z,34.40
2022-12-23T01:17:03.281Z,30.67
2022-12-23T01:19:31.379Z,28.73
2022-12-23T01:21:59.370Z,30.63
2022-12-23T01:24:29.412Z,28.87
2022-12-23T01:26:57.541Z,25.90
2022-12-23T01:29:25.656Z,31.50
2022-12-23T01:31:53.769Z,31.90
2022-12-23T01:34:23.200Z,30.77
2022-12-23T01:36:51.251Z,28.67
2022-12-23T01:39:19.485Z,28.83
2022-12-23T01:42:05.379Z,31.40
2022-12-23T01:45:02.173Z,30.97
2022-12-23T01:47:40.220Z,30.57
2022-12-23T01:50:16.015Z,29.43
2022-12-23T01:52:50.419Z,28.50
2022-12-23T01:55:22.038Z,31.67
2022-12-23T01:57:51.279Z,28.77
2022-12-23T02:00:39.972Z,27.87
2022-12-23T02:03:26.097Z,30.87
2022-12-23T02:06:16.151Z,31.20
2022-12-23T02:09:01.929Z,33.37
2022-12-23T02:11:41.398Z,35.57
2022-12-23T02:14:43.564Z,32.13
2022-12-23T02:17:22.458Z,30.93
2022-12-23T02:20:17.969Z,33.03
2022-12-23T02:23:18.406Z,34.10
2022-12-23T02:26:07.302Z,34.23
2022-12-23T02:29:00.615Z,31.53
2022-12-23T02:31:40.514Z,30.67
2022-12-23T02:34:19.667Z,32.10
2022-12-23T02:36:56.218Z,32.37
2022-12-23T02:39:35.249Z,31.30
2022-12-23T02:42:10.695Z,31.47
2022-12-23T02:44:45.612Z,29.20
2022-12-23T02:47:23.555Z,27.43
2022-12-23T02:49:55.903Z,29.27
2022-12-23T02:52:30.948Z,27.57
2022-12-23T02:55:02.616Z,28.20
2022-12-23T02:57:35.897Z,27.63
2022-12-23T03:00:06.266Z,28.67
2022-12-23T03:02:40.308Z,26.30
2022-12-23T03:05:28.134Z,26.40
2022-12-23T03:07:59.744Z,26.93
2022-12-23T03:10:39.075Z,29.67
2022-12-23T03:13:24.881Z,30.37
2022-12-23T03:16:02.968Z,30.57
2022-12-23T03:18:40.011Z,30.63
2022-12-23T03:21:13.943Z,30.10
2022-12-23T03:23:55.204Z,31.20
2022-12-23T03:26:32.908Z,33.40
2022-12-23T03:29:07.631Z,31.67
2022-12-23T03:31:40.285Z,30.20
2022-12-23T03:34:12.579Z,31.07
2022-12-23T03:36:46.999Z,34.93
2022-12-23T03:39:19.891Z,31.07
2022-12-23T03:41:52.770Z,36.87
2022-12-23T03:44:28.095Z,35.27
2022-12-23T03:47:04.362Z,29.73
2022-12-23T03:49:38.691Z,33.13
2022-12-23T03:52:17.287Z,34.30
2022-12-23T03:54:53.948Z,35.73
2022-12-23T03:57:24.193Z,33.37
2022-12-23T03:59:53.550Z,37.67
2022-12-23T04:02:28.730Z,36.70
2022-12-23T04:05:23.018Z,33.50
2022-12-23T04:07:56.016Z,37.03
2022-12-23T04:10:26.302Z,37.73
2022-12-23T04:12:55.844Z,35.13
2022-12-23T04:15:26.217Z,33.47
2022-12-23T04:17:56.699Z,34.20
2022-12-23T04:20:26.932Z,34.37
2022-12-23T04:22:55.539Z,32.73
2022-12-23T04:25:24.135Z,34.00
2022-12-23T04:27:52.845Z,31.27
2022-12-23T04:30:21.565Z,34.83
2022-12-23T04:32:51.211Z,32.20
2022-12-23T04:35:20.066Z,27.43
2022-12-23T04:37:52.392Z,32.07
2022-12-23T04:40:21.117Z,34.67
2022-12-23T04:42:49.820Z,35.67
2022-12-23T04:45:18.574Z,37.87
2022-12-23T04:47:47.239Z,35.97
2022-12-23T04:50:18.861Z,38.67
2022-12-23T04:52:47.525Z,35.80
2022-12-23T04:55:17.717Z,40.57
2022-12-23T04:57:46.358Z,41.63
2022-12-23T05:00:16.025Z,38.17
2022-12-23T05:02:44.861Z,39.80
2022-12-23T05:05:13.328Z,40.90
2022-12-23T05:07:41.973Z,37.53
2022-12-23T05:10:11.647Z,39.97
2022-12-23T05:12:41.720Z,38.57
2022-12-23T05:15:11.100Z,38.70
2022-12-23T05:17:39.751Z,39.03
2022-12-23T05:20:12.460Z,36.03
2022-12-23T05:22:41.192Z,39.80
2022-12-23T05:25:12.690Z,40.83
2022-12-23T05:27:45.280Z,41.73
2022-12-23T05:30:15.320Z,51.80
2022-12-23T05:32:46.187Z,48.17
2022-12-23T05:35:14.788Z,51.23
2022-12-23T05:37:43.510Z,53.63
2022-12-23T05:40:21.601Z,55.30
2022-12-23T05:42:53.685Z,47.33
2022-12-23T05:45:25.040Z,58.20
2022-12-23T05:47:53.626Z,56.40
2022-12-23T05:50:24.761Z,63.70
2022-12-23T05:52:56.070Z,57.30
2022-12-23T05:55:27.503Z,47.87
2022-12-23T05:57:57.528Z,56.70
2022-12-23T06:00:26.466Z,54.93
2022-12-23T06:02:55.361Z,53.63
2022-12-23T06:05:24.452Z,53.27
2022-12-23T06:07:54.183Z,48.63
2022-12-23T06:10:22.796Z,48.53
2022-12-23T06:12:51.476Z,47.00
2022-12-23T06:15:21.657Z,44.37
2022-12-23T06:17:50.759Z,50.77
2022-12-23T06:20:22.303Z,50.57
2022-12-23T06:22:50.971Z,43.53
2022-12-23T06:25:19.769Z,48.63
2022-12-23T06:27:51.397Z,49.70
2022-12-23T06:30:22.572Z,49.53
2022-12-23T06:32:51.162Z,47.37
2022-12-23T06:35:23.084Z,51.20
2022-12-23T06:37:54.591Z,49.93
2022-12-23T06:40:23.269Z,48.67
2022-12-23T06:42:51.691Z,45.80
2022-12-23T06:45:24.906Z,49.37
2022-12-23T06:48:00.242Z,45.73
2022-12-23T06:50:30.909Z,45.03
2022-12-23T06:53:01.610Z,47.47
2022-12-23T06:55:31.007Z,43.97
2022-12-23T06:58:02.867Z,45.87
2022-12-23T07:00:35.344Z,44.97
2022-12-23T07:03:06.860Z,46.00
2022-12-23T07:05:37.566Z,44.73
2022-12-23T07:08:12.844Z,44.47
2022-12-23T07:10:43.782Z,45.70
2022-12-23T07:13:23.451Z,44.63
2022-12-23T07:15:54.332Z,47.27
2022-12-23T07:18:29.833Z,39.73
2022-12-23T07:21:04.978Z,42.47
2022-12-23T07:23:36.754Z,46.07
2022-12-23T07:26:06.392Z,43.73
2022-12-23T07:28:37.276Z,42.53
2022-12-23T07:31:12.536Z,42.83
2022-12-23T07:33:46.484Z,42.00
2022-12-23T07:36:17.370Z,42.50
2022-12-23T07:38:46.974Z,44.93
2022-12-23T07:41:20.192Z,42.40
2022-12-23T07:43:49.820Z,45.80
2022-12-23T07:46:20.565Z,45.10
2022-12-23T07:48:52.011Z,45.50
2022-12-23T07:51:21.404Z,44.20
2022-12-23T07:53:51.602Z,44.13
2022-12-23T07:56:21.439Z,42.07
2022-12-23T07:58:51.250Z,46.80
2022-12-23T08:01:22.574Z,45.63
2022-12-23T08:03:52.130Z,45.20
2022-12-23T08:06:21.287Z,43.13
2022-12-23T08:08:53.042Z,43.60
2022-12-23T08:11:22.844Z,41.93
2022-12-23T08:13:55.312Z,44.57
2022-12-23T08:16:26.320Z,45.83
2022-12-23T08:18:55.593Z,44.57
2022-12-23T08:21:24.955Z,43.70
2022-12-23T08:23:55.305Z,47.13
2022-12-23T08:26:26.725Z,47.57
2022-12-23T08:28:55.734Z,42.97
2022-12-23T08:31:30.390Z,42.50
2022-12-23T08:34:00.924Z,40.00
2022-12-23T08:36:40.077Z,40.13
2022-12-23T08:39:10.953Z,43.23
2022-12-23T08:41:45.475Z,40.60
2022-12-23T08:44:15.269Z,45.90
2022-12-23T08:46:48.380Z,48.50
2022-12-23T08:49:20.440Z,46.40
2022-12-23T08:51:50.129Z,47.30
2022-12-23T08:54:31.499Z,44.33
2022-12-23T08:57:03.300Z,46.73
2022-12-23T08:59:35.042Z,42.43
2022-12-23T09:02:08.780Z,42.80
2022-12-23T09:04:39.362Z,42.03
2022-12-23T09:07:09.244Z,41.20
2022-12-23T09:09:43.460Z,50.00
2022-12-23T09:12:12.969Z,43.20
2022-12-23T09:14:43.174Z,44.67
2022-12-23T09:17:15.940Z,50.83
2022-12-23T09:19:52.517Z,42.73
2022-12-23T09:22:26.105Z,42.27
2022-12-23T09:24:58.645Z,48.00
2022-12-23T09:27:32.891Z,47.80
2022-12-23T09:30:02.445Z,45.97
2022-12-23T09:32:34.813Z,44.10
2022-12-23T09:35:04.838Z,46.47
2022-12-23T09:37:34.787Z,46.47
2022-12-23T09:40:04.827Z,50.53
2022-12-23T09:42:50.349Z,45.10
2022-12-23T09:45:40.921Z,40.67
2022-12-23T09:48:19.707Z,41.77
2022-12-23T09:50:50.152Z,44.43
2022-12-23T09:53:22.774Z,47.47
2022-12-23T09:55:59.695Z,39.10
2022-12-23T09:58:32.061Z,34.30
2022-12-23T10:01:15.655Z,43.57
2022-12-23T10:04:14.377Z,38.33
2022-12-23T10:06:49.217Z,35.87
2022-12-23T10:09:20.870Z,33.40
2022-12-23T10:11:54.326Z,35.23
2022-12-23T10:14:29.614Z,34.43
2022-12-23T10:17:03.082Z,36.70
2022-12-23T10:19:42.077Z,38.73
2022-12-23T10:22:24.820Z,32.70
2022-12-23T10:24:57.764Z,44.37
2022-12-23T10:27:36.281Z,33.90
2022-12-23T10:30:42.471Z,39.60
2022-12-23T10:33:09.639Z,40.77
2022-12-23T10:35:58.326Z,38.67
2022-12-23T10:38:46.601Z,39.93
2022-12-23T10:41:26.103Z,35.83
2022-12-23T10:44:10.956Z,40.43
2022-12-23T10:46:54.417Z,32.00
2022-12-23T10:49:33.166Z,32.50
2022-12-23T10:52:16.024Z,33.40
2022-12-23T10:54:47.726Z,39.43
2022-12-23T10:57:19.453Z,39.73
2022-12-23T10:59:49.145Z,47.33
2022-12-23T11:02:43.069Z,35.03
2022-12-23T11:05:22.262Z,37.83
2022-12-23T11:07:55.039Z,41.57
2022-12-23T11:10:34.804Z,36.80
2022-12-23T11:13:08.172Z,38.50
2022-12-23T11:15:43.323Z,44.33
2022-12-23T11:18:22.270Z,38.20
2022-12-23T11:21:07.189Z,34.80
2022-12-23T11:23:44.565Z,34.60
2022-12-23T11:26:22.014Z,35.27
2022-12-23T11:28:55.074Z,34.60
2022-12-23T11:31:36.726Z,36.27
2022-12-23T11:34:15.650Z,36.43
2022-12-23T11:36:48.886Z,37.50
2022-12-23T11:39:28.750Z,35.20
2022-12-23T11:42:07.269Z,37.63
2022-12-23T11:44:41.948Z,42.10
2022-12-23T11:47:29.828Z,36.77
2022-12-23T11:50:15.917Z,32.77
2022-12-23T11:52:53.477Z,36.23
2022-12-23T11:55:30.661Z,38.33
2022-12-23T11:58:04.919Z,33.50
2022-12-23T12:00:42.268Z,36.60
2022-12-23T12:03:24.072Z,37.80
2022-12-23T12:06:07.183Z,37.20
2022-12-23T12:08:41.848Z,38.90
2022-12-23T12:11:23.528Z,38.37
2022-12-23T12:14:03.083Z,37.83
2022-12-23T12:16:53.409Z,39.80
2022-12-23T12:19:37.015Z,39.73
2022-12-23T12:22:13.643Z,39.63
2022-12-23T12:24:51.793Z,38.63
2022-12-23T12:27:37.269Z,42.13
2022-12-23T12:30:10.039Z,39.13
2022-12-23T12:32:51.525Z,38.40
2022-12-23T12:35:31.401Z,48.33
2022-12-23T12:38:15.184Z,42.67
2022-12-23T12:40:47.192Z,41.10
2022-12-23T12:43:30.739Z,44.33
2022-12-23T12:46:26.185Z,43.83
2022-12-23T12:49:00.856Z,39.40
2022-12-23T12:51:40.191Z,46.83
2022-12-23T12:54:19.748Z,41.27
2022-12-23T12:56:53.590Z,46.63
2022-12-23T12:59:30.371Z,46.23
2022-12-23T13:02:12.792Z,47.37
2022-12-23T13:05:16.627Z,44.33
2022-12-23T13:07:59.754Z,40.23
2022-12-23T13:10:38.987Z,40.33
2022-12-23T13:13:21.085Z,34.20
2022-12-23T13:15:56.446Z,33.30
2022-12-23T13:18:38.347Z,28.50
2022-12-23T13:21:18.999Z,26.73
2022-12-23T13:24:03.629Z,30.53
2022-12-23T13:26:39.724Z,34.73
2022-12-23T13:29:49.447Z,33.27
2022-12-23T13:32:40.056Z,27.87
2022-12-23T13:35:26.338Z,30.27
2022-12-23T13:38:01.214Z,31.10
2022-12-23T13:40:40.143Z,27.97
2022-12-23T13:43:15.545Z,27.93
2022-12-23T13:45:47.966Z,27.57
2022-12-23T13:48:32.343Z,27.17
2022-12-23T13:51:06.748Z,32.27
2022-12-23T13:53:49.687Z,31.87
2022-12-23T13:56:27.165Z,29.37
2022-12-23T13:58:56.500Z,27.73
2022-12-23T14:01:35.281Z,28.07
2022-12-23T14:04:33.998Z,30.63
2022-12-23T14:07:05.329Z,28.67
2022-12-23T14:09:36.891Z,29.27
2022-12-23T14:12:21.981Z,29.57
2022-12-23T14:15:26.456Z,27.27
2022-12-23T14:18:08.511Z,30.60
2022-12-23T14:20:50.295Z,27.07
2022-12-23T14:23:36.002Z,28.33
2022-12-23T14:26:22.915Z,26.67
2022-12-23T14:29:00.899Z,27.53
2022-12-23T14:31:31.270Z,29.43
2022-12-23T14:34:08.614Z,28.20
2022-12-23T14:36:38.158Z,28.37
2022-12-23T14:39:30.860Z,27.20
2022-12-23T14:42:05.782Z,28.93
2022-12-23T14:44:49.819Z,28.37
2022-12-23T14:47:33.613Z,22.77
2022-12-23T14:50:42.855Z,25.47
2022-12-23T14:53:26.757Z,27.50
2022-12-23T14:56:21.351Z,27.87
2022-12-23T14:59:15.400Z,25.97
2022-12-23T15:01:48.361Z,27.77
2022-12-23T15:04:20.848Z,26.27
2022-12-23T15:06:52.107Z,28.90
2022-12-23T15:09:26.703Z,30.70
2022-12-23T15:11:57.457Z,28.53
2022-12-23T15:14:33.405Z,27.93
2022-12-23T15:17:15.158Z,25.30
2022-12-23T15:19:47.616Z,27.47
2022-12-23T15:22:23.784Z,29.87
2022-12-23T15:24:57.797Z,28.00
2022-12-23T15:27:28.315Z,31.80
2022-12-23T15:29:57.602Z,29.17
2022-12-23T15:32:26.948Z,27.53
2022-12-23T15:35:05.676Z,28.60
2022-12-23T15:37:34.477Z,29.53
2022-12-23T15:40:11.867Z,27.67
2022-12-23T15:42:47.251Z,34.53
2022-12-23T15:45:34.893Z,34.70
2022-12-23T15:48:04.306Z,33.13
2022-12-23T15:50:40.413Z,33.17
2022-12-23T15:53:11.710Z,30.53
2022-12-23T15:55:42.247Z,27.10
2022-12-23T15:58:19.984Z,30.57
2022-12-23T16:00:54.190Z,31.10
2022-12-23T16:03:29.292Z,31.27
2022-12-23T16:06:08.480Z,31.87
2022-12-23T16:08:37.076Z,30.30
2022-12-23T16:11:14.675Z,30.53
2022-12-23T16:13:58.323Z,29.90
2022-12-23T16:16:40.055Z,31.77
2022-12-23T16:19:24.666Z,27.67
2022-12-23T16:21:52.989Z,27.10
2022-12-23T16:24:22.198Z,31.43
2022-12-23T16:26:51.704Z,33.90
2022-12-23T16:29:20.757Z,30.60
2022-12-23T16:31:54.394Z,34.50
2022-12-23T16:34:31.392Z,33.30
2022-12-23T16:36:59.433Z,35.40
2022-12-23T16:39:27.487Z,36.90
2022-12-23T16:41:56.984Z,36.27
2022-12-23T16:44:25.090Z,38.93
2022-12-23T16:46:53.288Z,35.90
2022-12-23T16:49:26.580Z,35.00
2022-12-23T16:51:58.074Z,35.67
2022-12-23T16:54:26.105Z,37.77
2022-12-23T16:56:54.145Z,37.90
2022-12-23T16:59:24.910Z,42.67
2022-12-23T17:01:55.508Z,38.27
2022-12-23T17:04:27.668Z,36.23
2022-12-23T17:06:55.731Z,35.73
2022-12-23T17:09:23.757Z,36.30
2022-12-23T17:11:54.296Z,33.57
2022-12-23T17:14:25.409Z,29.70
2022-12-23T17:16:53.933Z,37.63
2022-12-23T17:19:28.589Z,34.90
2022-12-23T17:22:02.067Z,37.07
2022-12-23T17:24:31.282Z,38.80
2022-12-23T17:26:59.611Z,36.27
2022-12-23T17:29:29.294Z,31.57
2022-12-23T17:31:57.476Z,34.80
2022-12-23T17:34:25.859Z,32.93
2022-12-23T17:36:54.152Z,28.87
2022-12-23T17:39:23.110Z,31.93
2022-12-23T17:41:51.310Z,28.50
2022-12-23T17:44:19.967Z,29.17
2022-12-23T17:46:50.425Z,31.27
2022-12-23T17:49:18.434Z,27.67
2022-12-23T17:51:46.738Z,28.37
2022-12-23T17:54:23.010Z,31.33
2022-12-23T17:56:51.330Z,27.53
2022-12-23T17:59:19.435Z,28.33
2022-12-23T18:01:47.694Z,29.60
2022-12-23T18:04:17.168Z,30.57
2022-12-23T18:06:45.182Z,30.23
2022-12-23T18:09:13.173Z,29.13
2022-12-23T18:11:44.824Z,28.70
2022-12-23T18:14:17.451Z,28.43
2022-12-23T18:16:46.333Z,24.70
2022-12-23T18:19:19.726Z,26.00
2022-12-23T18:21:48.152Z,26.73
2022-12-23T18:24:16.520Z,29.03
2022-12-23T18:26:44.815Z,27.07
2022-12-23T18:29:12.832Z,27.10
2022-12-23T18:31:51.004Z,32.30
2022-12-23T18:34:21.269Z,33.17
2022-12-23T18:36:51.708Z,32.17
2022-12-23T18:39:20.314Z,34.43
2022-12-23T18:41:48.317Z,36.07
2022-12-23T18:44:18.633Z,33.60
2022-12-23T18:46:46.777Z,32.77
2022-12-23T18:49:14.882Z,37.10
2022-12-23T18:51:44.262Z,37.63
2022-12-23T18:54:15.127Z,34.77
2022-12-23T18:56:43.184Z,35.53
2022-12-23T18:59:16.896Z,38.63
2022-12-23T19:01:45.043Z,40.13
2022-12-23T19:04:13.408Z,38.47
2022-12-23T19:06:42.022Z,42.93
2022-12-23T19:09:16.807Z,45.83
2022-12-23T19:11:46.828Z,43.93
2022-12-23T19:14:15.089Z,45.20
2022-12-23T19:16:49.277Z,40.87
2022-12-23T19:19:19.653Z,43.47
2022-12-23T19:21:47.917Z,44.37
2022-12-23T19:24:17.396Z,44.47
2022-12-23T19:26:45.413Z,48.40
2022-12-23T19:29:13.532Z,42.90
2022-12-23T19:31:41.732Z,40.13
2022-12-23T19:34:15.107Z,42.97
2022-12-23T19:36:43.974Z,41.23
2022-12-23T19:39:16.372Z,39.77
2022-12-23T19:41:46.628Z,38.57
2022-12-23T19:44:14.911Z,38.97
2022-12-23T19:46:43.012Z,36.90
2022-12-23T19:49:17.585Z,35.27
2022-12-23T19:51:48.181Z,33.20
2022-12-23T19:54:16.428Z,32.07
2022-12-23T19:56:46.131Z,31.17
2022-12-23T19:59:14.197Z,30.73
2022-12-23T20:01:42.501Z,31.33
2022-12-23T20:04:11.368Z,31.93
2022-12-23T20:06:41.006Z,28.33
2022-12-23T20:09:11.968Z,25.40
2022-12-23T20:11:41.554Z,23.40
2022-12-23T20:14:12.065Z,24.67
2022-12-23T20:16:41.582Z,22.13
2022-12-23T20:19:09.899Z,22.90
2022-12-23T20:21:38.409Z,21.37
2022-12-23T20:24:07.252Z,22.90
2022-12-23T20:26:35.376Z,23.87
2022-12-23T20:29:03.432Z,25.13
2022-12-23T20:31:35.457Z,27.03
2022-12-23T20:34:04.088Z,25.53
2022-12-23T20:36:34.776Z,22.17
2022-12-23T20:39:03.909Z,23.60
2022-12-23T20:41:33.199Z,23.67
2022-12-23T20:46:51.114Z,25.13
2022-12-23T20:49:19.789Z,21.97
2022-12-23T20:51:47.904Z,23.23
2022-12-23T20:54:15.943Z,22.33
2022-12-23T20:56:44.102Z,22.33
2022-12-23T20:59:12.219Z,20.90
2022-12-23T21:01:41.774Z,25.17
2022-12-23T21:04:15.835Z,21.70
2022-12-23T21:06:45.641Z,16.93
2022-12-23T21:09:15.664Z,19.80
2022-12-23T21:11:45.831Z,21.33
2022-12-23T21:14:15.492Z,25.73
2022-12-23T21:16:43.877Z,22.67
2022-12-23T21:19:18.155Z,19.67
2022-12-23T21:21:46.717Z,22.57
2022-12-23T21:24:14.979Z,16.77
2022-12-23T21:26:43.803Z,14.83
2022-12-23T21:29:12.817Z,14.67
2022-12-23T21:31:42.010Z,15.63
2022-12-23T21:34:14.249Z,15.00
2022-12-23T21:36:44.131Z,17.73
2022-12-23T21:39:15.769Z,15.57
2022-12-23T21:41:43.847Z,13.90
2022-12-23T21:44:14.645Z,14.83
2022-12-23T21:46:42.788Z,13.33
2022-12-23T21:49:10.947Z,12.47
2022-12-23T21:51:41.248Z,12.07
2022-12-23T21:54:12.781Z,12.63
2022-12-23T21:56:41.875Z,8.13
2022-12-23T21:59:13.436Z,8.43
2022-12-23T22:01:42.474Z,8.73
2022-12-23T22:04:10.718Z,15.57
2022-12-23T22:06:43.930Z,10.90
2022-12-23T22:09:16.440Z,11.20
2022-12-23T22:11:45.527Z,9.20
2022-12-23T22:14:19.704Z,12.60
2022-12-23T22:16:47.767Z,9.37
2022-12-23T22:19:16.273Z,9.97
2022-12-23T22:21:44.295Z,12.13
2022-12-23T22:24:13.735Z,13.37
2022-12-23T22:26:42.205Z,10.43
2022-12-23T22:29:12.187Z,9.37
2022-12-23T22:31:43.112Z,7.53
2022-12-23T22:34:14.048Z,12.13
2022-12-23T22:36:42.177Z,8.83
2022-12-23T22:39:19.366Z,13.47
2022-12-23T22:41:48.699Z,12.20
2022-12-23T22:44:16.953Z,8.53
2022-12-23T22:46:45.212Z,9.30
2022-12-23T22:49:13.953Z,11.90
2022-12-23T22:51:43.154Z,12.90
2022-12-23T22:54:13.096Z,12.93
2022-12-23T22:56:41.208Z,11.17
2022-12-23T22:59:10.637Z,10.00
2022-12-23T23:01:38.771Z,10.40
2022-12-23T23:04:07.964Z,16.30
2022-12-23T23:06:38.707Z,11.90
2022-12-23T23:09:07.946Z,12.17
2022-12-23T23:11:37.478Z,15.53
2022-12-23T23:14:05.803Z,11.37
2022-12-23T23:16:34.540Z,10.87
2022-12-23T23:19:03.750Z,9.87
2022-12-23T23:21:32.005Z,11.63
2022-12-23T23:24:00.178Z,12.27
2022-12-23T23:26:28.472Z,10.97
2022-12-23T23:28:57.967Z,14.27
2022-12-23T23:31:43.286Z,12.70
2022-12-23T23:34:12.419Z,13.33
2022-12-23T23:36:40.632Z,17.37
2022-12-23T23:39:09.163Z,14.57
2022-12-23T23:41:37.205Z,12.90
2022-12-23T23:44:06.726Z,12.27
2022-12-23T23:46:34.942Z,12.30
2022-12-23T23:49:03.161Z,16.77
2022-12-23T23:51:31.293Z,14.27
2022-12-23T23:53:59.369Z,9.17
2022-12-23T23:56:31.089Z,12.37
2022-12-23T23:59:02.003Z,11.03
